sensor_id;sensor_type;location;lat;lon;timestamp;pressure;altitude;pressure_sealevel;temperature;humidity
19600;BME280;9947;57.722;12.012;2024-01-07T00:01:20;102543.41;;;-14.03;100.00
19600;BME280;9947;57.722;12.012;2024-01-07T00:03:49;102544.13;;;-14.05;100.00
19600;BME280;9947;57.722;12.012;2024-01-07T00:06:18;102552.75;;;-14.06;100.00
19600;BME280;9947;57.722;12.012;2024-01-07T00:08:45;102550.88;;;-14.09;100.00
19600;BME280;9947;57.722;12.012;2024-01-07T00:11:14;102562.16;;;-14.08;100.00
19600;BME280;9947;57.722;12.012;2024-01-07T00:13:45;102566.38;;;-14.10;100.00
19600;BME280;9947;57.722;12.012;2024-01-07T00:16:14;102568.59;;;-14.18;100.00
19600;BME280;9947;57.722;12.012;2024-01-07T00:18:42;102568.75;;;-14.15;100.00
19600;BME280;9947;57.722;12.012;2024-01-07T00:21:10;102567.69;;;-14.18;100.00
19600;BME280;9947;57.722;12.012;2024-01-07T00:23:37;102567.69;;;-14.18;100.00
19600;BME280;9947;57.722;12.012;2024-01-07T00:26:04;102562.50;;;-14.18;100.00
19600;BME280;9947;57.722;12.012;2024-01-07T00:28:33;102566.50;;;-14.25;100.00
19600;BME280;9947;57.722;12.012;2024-01-07T00:31:02;102564.88;;;-14.23;100.00
19600;BME280;9947;57.722;12.012;2024-01-07T00:33:32;102558.47;;;-14.29;100.00
19600;BME280;9947;57.722;12.012;2024-01-07T00:35:58;102563.91;;;-14.25;100.00
19600;BME280;9947;57.722;12.012;2024-01-07T00:38:28;102558.53;;;-14.28;100.00
19600;BME280;9947;57.722;12.012;2024-01-07T00:43:19;102553.97;;;-14.32;100.00
19600;BME280;9947;57.722;12.012;2024-01-07T00:48:13;102562.94;;;-14.27;100.00
19600;BME280;9947;57.722;12.012;2024-01-07T00:50:40;102564.56;;;-14.29;100.00
19600;BME280;9947;57.722;12.012;2024-01-07T00:53:08;102571.38;;;-14.31;100.00
19600;BME280;9947;57.722;12.012;2024-01-07T00:55:35;102567.84;;;-14.32;100.00
19600;BME280;9947;57.722;12.012;2024-01-07T00:58:03;102572.44;;;-14.27;100.00
19600;BME280;9947;57.722;12.012;2024-01-07T01:00:33;102576.81;;;-14.26;100.00
19600;BME280;9947;57.722;12.012;2024-01-07T01:02:59;102586.53;;;-14.22;100.00
19600;BME280;9947;57.722;12.012;2024-01-07T01:05:29;102585.81;;;-14.20;100.00
19600;BME280;9947;57.722;12.012;2024-01-07T01:07:56;102593.69;;;-14.18;100.00
19600;BME280;9947;57.722;12.012;2024-01-07T01:10:23;102599.53;;;-14.22;100.00
19600;BME280;9947;57.722;12.012;2024-01-07T01:12:51;102597.81;;;-14.22;100.00
19600;BME280;9947;57.722;12.012;2024-01-07T01:15:19;102607.56;;;-14.18;100.00
19600;BME280;9947;57.722;12.012;2024-01-07T01:20:11;102596.28;;;-14.18;100.00
19600;BME280;9947;57.722;12.012;2024-01-07T01:22:40;102606.69;;;-14.18;100.00
19600;BME280;9947;57.722;12.012;2024-01-07T01:25:07;102611.13;;;-14.16;100.00
19600;BME280;9947;57.722;12.012;2024-01-07T01:27:34;102606.59;;;-14.20;100.00
19600;BME280;9947;57.722;12.012;2024-01-07T01:30:06;102603.09;;;-14.20;100.00
19600;BME280;9947;57.722;12.012;2024-01-07T01:32:34;102609.19;;;-14.20;100.00
19600;BME280;9947;57.722;12.012;2024-01-07T01:35:05;102608.22;;;-14.22;100.00
19600;BME280;9947;57.722;12.012;2024-01-07T01:37:33;102620.56;;;-14.18;100.00
19600;BME280;9947;57.722;12.012;2024-01-07T01:40:02;102623.00;;;-14.21;100.00
19600;BME280;9947;57.722;12.012;2024-01-07T01:42:29;102623.72;;;-14.23;100.00
19600;BME280;9947;57.722;12.012;2024-01-07T01:44:56;102622.75;;;-14.25;100.00
19600;BME280;9947;57.722;12.012;2024-01-07T01:47:28;102627.13;;;-14.24;100.00
19600;BME280;9947;57.722;12.012;2024-01-07T01:49:55;102619.19;;;-14.27;100.00
19600;BME280;9947;57.722;12.012;2024-01-07T01:52:23;102621.88;;;-14.26;100.00
19600;BME280;9947;57.722;12.012;2024-01-07T01:54:51;102623.50;;;-14.28;100.00
19600;BME280;9947;57.722;12.012;2024-01-07T01:57:21;102624.38;;;-14.27;100.00
19600;BME280;9947;57.722;12.012;2024-01-07T01:59:50;102633.88;;;-14.28;100.00
19600;BME280;9947;57.722;12.012;2024-01-07T02:02:17;102628.53;;;-14.31;100.00
19600;BME280;9947;57.722;12.012;2024-01-07T02:04:44;102624.91;;;-14.33;100.00
19600;BME280;9947;57.722;12.012;2024-01-07T02:07:12;102628.31;;;-14.34;100.00
19600;BME280;9947;57.722;12.012;2024-01-07T02:09:40;102635.16;;;-14.36;100.00
19600;BME280;9947;57.722;12.012;2024-01-07T02:12:07;102631.81;;;-14.34;100.00
19600;BME280;9947;57.722;12.012;2024-01-07T02:14:38;102639.53;;;-14.35;100.00
19600;BME280;9947;57.722;12.012;2024-01-07T02:17:05;102643.91;;;-14.34;100.00
19600;BME280;9947;57.722;12.012;2024-01-07T02:19:32;102644.72;;;-14.35;100.00
19600;BME280;9947;57.722;12.012;2024-01-07T02:21:59;102644.81;;;-14.34;100.00
19600;BME280;9947;57.722;12.012;2024-01-07T02:24:27;102653.56;;;-14.32;100.00
19600;BME280;9947;57.722;12.012;2024-01-07T02:26:56;102653.56;;;-14.32;100.00
19600;BME280;9947;57.722;12.012;2024-01-07T02:29:27;102657.25;;;-14.28;100.00
19600;BME280;9947;57.722;12.012;2024-01-07T02:34:20;102648.56;;;-14.28;100.00
19600;BME280;9947;57.722;12.012;2024-01-07T02:39:12;102653.78;;;-14.28;100.00
19600;BME280;9947;57.722;12.012;2024-01-07T02:41:41;102653.03;;;-14.26;100.00
19600;BME280;9947;57.722;12.012;2024-01-07T02:44:08;102656.44;;;-14.27;100.00
19600;BME280;9947;57.722;12.012;2024-01-07T02:46:35;102655.47;;;-14.29;100.00
19600;BME280;9947;57.722;12.012;2024-01-07T02:49:04;102657.09;;;-14.31;100.00
19600;BME280;9947;57.722;12.012;2024-01-07T02:51:32;102666.69;;;-14.30;100.00
19600;BME280;9947;57.722;12.012;2024-01-07T02:53:59;102663.19;;;-14.30;100.00
19600;BME280;9947;57.722;12.012;2024-01-07T02:56:26;102667.50;;;-14.31;100.00
19600;BME280;9947;57.722;12.012;2024-01-07T03:01:23;102670.16;;;-14.29;100.00
19600;BME280;9947;57.722;12.012;2024-01-07T03:06:19;102671.88;;;-14.30;100.00
19600;BME280;9947;57.722;12.012;2024-01-07T03:08:47;102678.78;;;-14.30;100.00
19600;BME280;9947;57.722;12.012;2024-01-07T03:11:14;102680.47;;;-14.31;100.00
19600;BME280;9947;57.722;12.012;2024-01-07T03:13:43;102671.94;;;-14.28;100.00
19600;BME280;9947;57.722;12.012;2024-01-07T03:16:19;102680.72;;;-14.26;100.00
19600;BME280;9947;57.722;12.012;2024-01-07T03:18:47;102695.13;;;-14.32;100.00
19600;BME280;9947;57.722;12.012;2024-01-07T03:21:18;102697.72;;;-14.32;100.00
19600;BME280;9947;57.722;12.012;2024-01-07T03:23:50;102699.44;;;-14.32;100.00
19600;BME280;9947;57.722;12.012;2024-01-07T03:26:20;102701.94;;;-14.34;100.00
19600;BME280;9947;57.722;12.012;2024-01-07T03:31:19;102708.84;;;-14.34;100.00
19600;BME280;9947;57.722;12.012;2024-01-07T03:36:15;102716.56;;;-14.36;100.00
19600;BME280;9947;57.722;12.012;2024-01-07T03:38:42;102720.94;;;-14.35;100.00
19600;BME280;9947;57.722;12.012;2024-01-07T03:41:15;102718.25;;;-14.36;100.00
19600;BME280;9947;57.722;12.012;2024-01-07T03:43:43;102722.66;;;-14.35;100.00
19600;BME280;9947;57.722;12.012;2024-01-07T03:46:13;102718.63;;;-14.30;100.00
19600;BME280;9947;57.722;12.012;2024-01-07T03:48:41;102720.41;;;-14.29;100.00
19600;BME280;9947;57.722;12.012;2024-01-07T03:53:39;102732.59;;;-14.28;100.00
19600;BME280;9947;57.722;12.012;2024-01-07T03:56:06;102725.31;;;-14.19;100.00
19600;BME280;9947;57.722;12.012;2024-01-07T03:58:34;102730.00;;;-14.12;100.00
19600;BME280;9947;57.722;12.012;2024-01-07T04:01:01;102729.03;;;-14.14;100.00
19600;BME280;9947;57.722;12.012;2024-01-07T04:03:27;102724.81;;;-14.12;100.00
19600;BME280;9947;57.722;12.012;2024-01-07T04:05:59;102732.03;;;-14.06;100.00
19600;BME280;9947;57.722;12.012;2024-01-07T04:08:25;102735.53;;;-14.06;100.00
19600;BME280;9947;57.722;12.012;2024-01-07T04:10:55;102741.25;;;-13.96;100.00
19600;BME280;9947;57.722;12.012;2024-01-07T04:13:23;102743.53;;;-13.86;100.00
19600;BME280;9947;57.722;12.012;2024-01-07T04:18:18;102745.72;;;-13.94;100.00
19600;BME280;9947;57.722;12.012;2024-01-07T04:20:46;102751.50;;;-13.99;100.00
19600;BME280;9947;57.722;12.012;2024-01-07T04:23:14;102751.34;;;-14.03;100.00
19600;BME280;9947;57.722;12.012;2024-01-07T04:25:41;102756.34;;;-14.06;100.00
19600;BME280;9947;57.722;12.012;2024-01-07T04:28:11;102756.53;;;-14.03;100.00
19600;BME280;9947;57.722;12.012;2024-01-07T04:30:38;102755.88;;;-13.98;100.00
19600;BME280;9947;57.722;12.012;2024-01-07T04:33:07;102761.81;;;-14.01;100.00
19600;BME280;9947;57.722;12.012;2024-01-07T04:35:38;102760.56;;;-14.08;100.00
19600;BME280;9947;57.722;12.012;2024-01-07T04:38:07;102762.97;;;-14.11;100.00
19600;BME280;9947;57.722;12.012;2024-01-07T04:40:35;102774.84;;;-14.16;100.00
19600;BME280;9947;57.722;12.012;2024-01-07T04:43:02;102776.72;;;-14.13;100.00
19600;BME280;9947;57.722;12.012;2024-01-07T04:45:35;102768.09;;;-14.12;100.00
19600;BME280;9947;57.722;12.012;2024-01-07T04:48:02;102780.81;;;-14.02;100.00
19600;BME280;9947;57.722;12.012;2024-01-07T04:50:30;102781.94;;;-13.97;100.00
19600;BME280;9947;57.722;12.012;2024-01-07T04:52:57;102787.22;;;-13.95;100.00
19600;BME280;9947;57.722;12.012;2024-01-07T04:55:26;102794.69;;;-14.02;100.00
19600;BME280;9947;57.722;12.012;2024-01-07T05:00:18;102796.91;;;-13.93;100.00
19600;BME280;9947;57.722;12.012;2024-01-07T05:02:47;102804.63;;;-13.94;100.00
19600;BME280;9947;57.722;12.012;2024-01-07T05:05:13;102796.91;;;-13.93;100.00
19600;BME280;9947;57.722;12.012;2024-01-07T05:07:41;102792.34;;;-13.97;100.00
19600;BME280;9947;57.722;12.012;2024-01-07T05:10:08;102793.31;;;-13.95;100.00
19600;BME280;9947;57.722;12.012;2024-01-07T05:12:34;102801.13;;;-13.95;100.00
19600;BME280;9947;57.722;12.012;2024-01-07T05:15:01;102800.06;;;-13.98;100.00
19600;BME280;9947;57.722;12.012;2024-01-07T05:17:30;102798.44;;;-13.96;100.00
19600;BME280;9947;57.722;12.012;2024-01-07T05:20:03;102802.03;;;-13.94;100.00
19600;BME280;9947;57.722;12.012;2024-01-07T05:22:33;102808.53;;;-13.86;100.00
19600;BME280;9947;57.722;12.012;2024-01-07T05:25:00;102807.88;;;-13.82;100.00
19600;BME280;9947;57.722;12.012;2024-01-07T05:27:28;102813.25;;;-13.79;100.00
19600;BME280;9947;57.722;12.012;2024-01-07T05:32:22;102822.94;;;-13.77;100.00
19600;BME280;9947;57.722;12.012;2024-01-07T05:34:56;102827.94;;;-13.80;100.00
19600;BME280;9947;57.722;12.012;2024-01-07T05:37:26;102830.09;;;-13.73;100.00
19600;BME280;9947;57.722;12.012;2024-01-07T05:42:19;102835.88;;;-13.62;100.00
19600;BME280;9947;57.722;12.012;2024-01-07T05:44:46;102851.19;;;-13.52;100.00
19600;BME280;9947;57.722;12.012;2024-01-07T05:47:14;102852.25;;;-13.48;100.00
19600;BME280;9947;57.722;12.012;2024-01-07T05:49:42;102858.28;;;-13.49;100.00
19600;BME280;9947;57.722;12.012;2024-01-07T05:52:10;102865.41;;;-13.45;100.00
19600;BME280;9947;57.722;12.012;2024-01-07T05:54:38;102861.75;;;-13.49;100.00
19600;BME280;9947;57.722;12.012;2024-01-07T05:57:04;102864.59;;;-13.44;100.00
19600;BME280;9947;57.722;12.012;2024-01-07T05:59:32;102871.75;;;-13.40;100.00
19600;BME280;9947;57.722;12.012;2024-01-07T06:01:59;102871.03;;;-13.37;100.00
19600;BME280;9947;57.722;12.012;2024-01-07T06:04:28;102877.38;;;-13.32;100.00
19600;BME280;9947;57.722;12.012;2024-01-07T06:06:55;102884.28;;;-13.33;100.00
19600;BME280;9947;57.722;12.012;2024-01-07T06:09:24;102887.63;;;-13.35;100.00
19600;BME280;9947;57.722;12.012;2024-01-07T06:14:20;102885.53;;;-13.26;100.00
19600;BME280;9947;57.722;12.012;2024-01-07T06:17:00;102886.44;;;-13.26;100.00
19600;BME280;9947;57.722;12.012;2024-01-07T06:19:30;102885.53;;;-13.26;100.00
19600;BME280;9947;57.722;12.012;2024-01-07T06:21:57;102891.72;;;-13.24;100.00
19600;BME280;9947;57.722;12.012;2024-01-07T06:24:23;102891.81;;;-13.23;100.00
19600;BME280;9947;57.722;12.012;2024-01-07T06:29:15;102904.16;;;-13.19;100.00
19600;BME280;9947;57.722;12.012;2024-01-07T06:31:45;102906.97;;;-13.14;100.00
19600;BME280;9947;57.722;12.012;2024-01-07T06:34:14;102911.19;;;-13.16;100.00
19600;BME280;9947;57.722;12.012;2024-01-07T06:36:42;102911.38;;;-13.13;100.00
19600;BME280;9947;57.722;12.012;2024-01-07T06:39:09;102914.94;;;-13.11;100.00
19600;BME280;9947;57.722;12.012;2024-01-07T06:41:38;102915.91;;;-13.09;100.00
19600;BME280;9947;57.722;12.012;2024-01-07T06:44:05;102926.16;;;-13.12;100.00
19600;BME280;9947;57.722;12.012;2024-01-07T06:46:32;102921.19;;;-13.08;100.00
19600;BME280;9947;57.722;12.012;2024-01-07T06:49:01;102925.75;;;-13.03;100.00
19600;BME280;9947;57.722;12.012;2024-01-07T06:51:29;102918.53;;;-12.93;100.00
19600;BME280;9947;57.722;12.012;2024-01-07T06:56:21;102927.97;;;-12.79;100.00
19600;BME280;9947;57.722;12.012;2024-01-07T07:01:19;102926.41;;;-12.59;100.00
19600;BME280;9947;57.722;12.012;2024-01-07T07:06:15;102942.63;;;-12.48;100.00
19600;BME280;9947;57.722;12.012;2024-01-07T07:08:42;102939.75;;;-12.36;100.00
19600;BME280;9947;57.722;12.012;2024-01-07T07:11:09;102953.16;;;-12.29;100.00
19600;BME280;9947;57.722;12.012;2024-01-07T07:13:35;102952.50;;;-12.25;100.00
19600;BME280;9947;57.722;12.012;2024-01-07T07:16:04;102972.06;;;-12.17;100.00
19600;BME280;9947;57.722;12.012;2024-01-07T07:18:30;102979.88;;;-12.17;100.00
19600;BME280;9947;57.722;12.012;2024-01-07T07:23:27;103009.09;;;-12.06;100.00
19600;BME280;9947;57.722;12.012;2024-01-07T07:25:55;103015.03;;;-12.08;100.00
19600;BME280;9947;57.722;12.012;2024-01-07T07:28:22;103036.56;;;-11.96;100.00
19600;BME280;9947;57.722;12.012;2024-01-07T07:33:20;103028.63;;;-11.98;100.00
19600;BME280;9947;57.722;12.012;2024-01-07T07:35:47;103037.94;;;-12.03;100.00
19600;BME280;9947;57.722;12.012;2024-01-07T07:38:15;103035.41;;;-12.01;100.00
19600;BME280;9947;57.722;12.012;2024-01-07T07:40:43;103046.16;;;-11.95;100.00
19600;BME280;9947;57.722;12.012;2024-01-07T07:43:17;103046.88;;;-11.98;100.00
19600;BME280;9947;57.722;12.012;2024-01-07T07:45:45;103051.31;;;-11.97;100.00
19600;BME280;9947;57.722;12.012;2024-01-07T07:48:12;103056.34;;;-12.00;100.00
19600;BME280;9947;57.722;12.012;2024-01-07T07:50:40;103054.88;;;-11.95;100.00
19600;BME280;9947;57.722;12.012;2024-01-07T07:53:08;103068.97;;;-11.91;100.00
19600;BME280;9947;57.722;12.012;2024-01-07T07:55:36;103067.75;;;-11.98;100.00
19600;BME280;9947;57.722;12.012;2024-01-07T07:58:04;103068.75;;;-11.96;100.00
19600;BME280;9947;57.722;12.012;2024-01-07T08:00:30;103064.44;;;-11.95;100.00
19600;BME280;9947;57.722;12.012;2024-01-07T08:02:57;103071.16;;;-11.99;100.00
19600;BME280;9947;57.722;12.012;2024-01-07T08:05:24;103071.91;;;-12.01;100.00
19600;BME280;9947;57.722;12.012;2024-01-07T08:07:58;103076.81;;;-11.91;100.00
19600;BME280;9947;57.722;12.012;2024-01-07T08:10:25;103077.78;;;-11.89;100.00
19600;BME280;9947;57.722;12.012;2024-01-07T08:15:32;103081.44;;;-11.86;100.00
19600;BME280;9947;57.722;12.012;2024-01-07T08:18:00;103093.00;;;-11.80;100.00
19600;BME280;9947;57.722;12.012;2024-01-07T08:20:28;103094.72;;;-11.81;100.00
19600;BME280;9947;57.722;12.012;2024-01-07T08:25:20;103101.72;;;-11.80;100.00
19600;BME280;9947;57.722;12.012;2024-01-07T08:30:13;103103.72;;;-11.74;100.00
19600;BME280;9947;57.722;12.012;2024-01-07T08:32:42;103117.72;;;-11.72;100.00
19600;BME280;9947;57.722;12.012;2024-01-07T08:35:11;103116.19;;;-11.69;100.00
19600;BME280;9947;57.722;12.012;2024-01-07T08:37:38;103122.78;;;-11.59;100.00
19600;BME280;9947;57.722;12.012;2024-01-07T08:40:06;103122.13;;;-11.55;100.00
19600;BME280;9947;57.722;12.012;2024-01-07T08:42:36;103129.34;;;-11.49;100.00
19600;BME280;9947;57.722;12.012;2024-01-07T08:45:04;103127.31;;;-11.39;100.00
19600;BME280;9947;57.722;12.012;2024-01-07T08:47:31;103118.25;;;-11.45;100.00
19600;BME280;9947;57.722;12.012;2024-01-07T08:50:01;103121.03;;;-11.42;100.00
19600;BME280;9947;57.722;12.012;2024-01-07T08:52:29;103126.50;;;-11.38;100.00
19600;BME280;9947;57.722;12.012;2024-01-07T08:54:57;103133.34;;;-11.40;100.00
19600;BME280;9947;57.722;12.012;2024-01-07T08:57:25;103129.84;;;-11.40;100.00
19600;BME280;9947;57.722;12.012;2024-01-07T09:02:22;103130.22;;;-11.33;100.00
19600;BME280;9947;57.722;12.012;2024-01-07T09:07:15;103128.94;;;-11.41;100.00
19600;BME280;9947;57.722;12.012;2024-01-07T09:09:44;103134.47;;;-11.35;100.00
19600;BME280;9947;57.722;12.012;2024-01-07T09:12:12;103136.63;;;-11.26;100.00
19600;BME280;9947;57.722;12.012;2024-01-07T09:14:39;103138.34;;;-11.27;100.00
19600;BME280;9947;57.722;12.012;2024-01-07T09:17:09;103143.25;;;-11.16;100.00
19600;BME280;9947;57.722;12.012;2024-01-07T09:19:36;103147.94;;;-11.09;100.00
19600;BME280;9947;57.722;12.012;2024-01-07T09:22:05;103149.88;;;-11.05;100.00
19600;BME280;9947;57.722;12.012;2024-01-07T09:24:34;103153.69;;;-10.99;100.00
19600;BME280;9947;57.722;12.012;2024-01-07T09:27:04;103152.94;;;-10.96;100.00
19600;BME280;9947;57.722;12.012;2024-01-07T09:29:31;103157.25;;;-10.97;100.00
19600;BME280;9947;57.722;12.012;2024-01-07T09:34:24;103166.16;;;-10.93;100.00
19600;BME280;9947;57.722;12.012;2024-01-07T09:39:23;103167.38;;;-10.86;100.00
19600;BME280;9947;57.722;12.012;2024-01-07T09:41:56;103165.13;;;-10.79;100.00
19600;BME280;9947;57.722;12.012;2024-01-07T09:44:25;103164.31;;;-10.78;100.00
19600;BME280;9947;57.722;12.012;2024-01-07T09:49:19;103170.66;;;-10.73;100.00
19600;BME280;9947;57.722;12.012;2024-01-07T09:54:16;103176.25;;;-10.65;100.00
19600;BME280;9947;57.722;12.012;2024-01-07T09:56:50;103175.88;;;-10.55;100.00
19600;BME280;9947;57.722;12.012;2024-01-07T09:59:19;103182.75;;;-10.57;100.00
19600;BME280;9947;57.722;12.012;2024-01-07T10:01:48;103181.09;;;-10.55;100.00
19600;BME280;9947;57.722;12.012;2024-01-07T10:04:16;103181.25;;;-10.52;100.00
19600;BME280;9947;57.722;12.012;2024-01-07T10:06:42;103180.50;;;-10.49;100.00
19600;BME280;9947;57.722;12.012;2024-01-07T10:09:13;103177.19;;;-10.45;100.00
19600;BME280;9947;57.722;12.012;2024-01-07T10:11:41;103182.88;;;-10.36;100.00
19600;BME280;9947;57.722;12.012;2024-01-07T10:14:09;103186.53;;;-10.33;100.00
19600;BME280;9947;57.722;12.012;2024-01-07T10:16:38;103179.66;;;-10.31;100.00
19600;BME280;9947;57.722;12.012;2024-01-07T10:19:07;103184.13;;;-10.28;100.00
19600;BME280;9947;57.722;12.012;2024-01-07T10:21:34;103182.06;;;-10.16;100.00
19600;BME280;9947;57.722;12.012;2024-01-07T10:24:17;103180.09;;;-10.21;100.00
19600;BME280;9947;57.722;12.012;2024-01-07T10:26:44;103174.19;;;-10.16;100.00
19600;BME280;9947;57.722;12.012;2024-01-07T10:29:11;103167.41;;;-10.12;100.00
19600;BME280;9947;57.722;12.012;2024-01-07T10:31:40;103174.03;;;-10.01;100.00
19600;BME280;9947;57.722;12.012;2024-01-07T10:34:10;103157.50;;;-10.00;100.00
19600;BME280;9947;57.722;12.012;2024-01-07T10:36:39;103165.28;;;-10.02;100.00
19600;BME280;9947;57.722;12.012;2024-01-07T10:39:09;103160.13;;;-10.00;100.00
19600;BME280;9947;57.722;12.012;2024-01-07T10:41:38;103163.78;;;-9.97;100.00
19600;BME280;9947;57.722;12.012;2024-01-07T10:44:08;103165.44;;;-9.99;100.00
19600;BME280;9947;57.722;12.012;2024-01-07T10:46:35;103161.34;;;-9.92;100.00
19600;BME280;9947;57.722;12.012;2024-01-07T10:51:35;103156.50;;;-9.84;100.00
19600;BME280;9947;57.722;12.012;2024-01-07T10:54:04;103139.34;;;-9.78;100.00
19600;BME280;9947;57.722;12.012;2024-01-07T10:56:39;103138.31;;;-9.81;100.00
19600;BME280;9947;57.722;12.012;2024-01-07T10:59:12;103146.63;;;-9.90;100.00
19600;BME280;9947;57.722;12.012;2024-01-07T11:01:42;103151.78;;;-9.91;100.00
19600;BME280;9947;57.722;12.012;2024-01-07T11:04:14;103142.84;;;-9.97;100.00
19600;BME280;9947;57.722;12.012;2024-01-07T11:06:52;103134.28;;;-9.92;100.00
19600;BME280;9947;57.722;12.012;2024-01-07T11:09:28;103132.16;;;-10.01;100.00
19600;BME280;9947;57.722;12.012;2024-01-07T11:12:01;103131.41;;;-9.99;100.00
19600;BME280;9947;57.722;12.012;2024-01-07T11:14:37;103127.84;;;-10.01;100.00
19600;BME280;9947;57.722;12.012;2024-01-07T11:17:05;103128.59;;;-10.03;100.00
19600;BME280;9947;57.722;12.012;2024-01-07T11:19:33;103130.44;;;-10.01;100.00
19600;BME280;9947;57.722;12.012;2024-01-07T11:22:25;103130.59;;;-9.98;100.00
19600;BME280;9947;57.722;12.012;2024-01-07T11:24:53;103132.44;;;-9.95;100.00
19600;BME280;9947;57.722;12.012;2024-01-07T11:27:21;103133.97;;;-10.00;100.00
19600;BME280;9947;57.722;12.012;2024-01-07T11:29:55;103138.84;;;-10.08;100.00
19600;BME280;9947;57.722;12.012;2024-01-07T11:32:28;103144.63;;;-9.96;100.00
19600;BME280;9947;57.722;12.012;2024-01-07T11:34:55;103143.81;;;-9.95;100.00
19600;BME280;9947;57.722;12.012;2024-01-07T11:37:26;103151.03;;;-9.89;100.00
19600;BME280;9947;57.722;12.012;2024-01-07T11:39:56;103154.78;;;-9.84;100.00
19600;BME280;9947;57.722;12.012;2024-01-07T11:42:22;103150.13;;;-9.89;100.00
19600;BME280;9947;57.722;12.012;2024-01-07T11:47:15;103155.22;;;-9.92;100.00
19600;BME280;9947;57.722;12.012;2024-01-07T11:49:42;103157.97;;;-9.89;100.00
19600;BME280;9947;57.722;12.012;2024-01-07T11:52:09;103167.94;;;-9.82;100.00
19600;BME280;9947;57.722;12.012;2024-01-07T11:54:38;103167.09;;;-9.81;100.00
19600;BME280;9947;57.722;12.012;2024-01-07T11:57:05;103172.13;;;-9.86;100.00
19600;BME280;9947;57.722;12.012;2024-01-07T11:59:34;103177.97;;;-9.72;100.00
19600;BME280;9947;57.722;12.012;2024-01-07T12:02:03;103179.41;;;-9.79;100.00
19600;BME280;9947;57.722;12.012;2024-01-07T12:04:31;103176.13;;;-9.75;100.00
19600;BME280;9947;57.722;12.012;2024-01-07T12:06:59;103171.22;;;-9.67;100.00
19600;BME280;9947;57.722;12.012;2024-01-07T12:09:27;103171.00;;;-9.72;100.00
19600;BME280;9947;57.722;12.012;2024-01-07T12:14:20;103172.72;;;-9.53;100.00
19600;BME280;9947;57.722;12.012;2024-01-07T12:16:48;103174.19;;;-9.59;100.00
19600;BME280;9947;57.722;12.012;2024-01-07T12:19:16;103166.22;;;-9.62;100.00
19600;BME280;9947;57.722;12.012;2024-01-07T12:21:43;103178.59;;;-9.58;100.00
19600;BME280;9947;57.722;12.012;2024-01-07T12:24:10;103170.63;;;-9.61;100.00
19600;BME280;9947;57.722;12.012;2024-01-07T12:26:39;103181.16;;;-9.60;100.00
19600;BME280;9947;57.722;12.012;2024-01-07T12:29:06;103176.81;;;-9.59;100.00
19600;BME280;9947;57.722;12.012;2024-01-07T12:31:38;103184.81;;;-9.56;100.00
19600;BME280;9947;57.722;12.012;2024-01-07T12:34:09;103198.97;;;-9.51;100.00
19600;BME280;9947;57.722;12.012;2024-01-07T12:36:38;103197.41;;;-9.48;100.00
19600;BME280;9947;57.722;12.012;2024-01-07T12:39:05;103189.53;;;-9.48;100.00
19600;BME280;9947;57.722;12.012;2024-01-07T12:41:32;103199.31;;;-9.44;100.00
19600;BME280;9947;57.722;12.012;2024-01-07T12:44:00;103195.72;;;-9.46;100.00
19600;BME280;9947;57.722;12.012;2024-01-07T12:46:30;103202.06;;;-9.41;100.00
19600;BME280;9947;57.722;12.012;2024-01-07T12:48:58;103209.78;;;-9.44;100.00
19600;BME280;9947;57.722;12.012;2024-01-07T12:51:25;103207.38;;;-9.39;100.00
19600;BME280;9947;57.722;12.012;2024-01-07T12:56:22;103209.91;;;-9.41;100.00
19600;BME280;9947;57.722;12.012;2024-01-07T12:59:03;103217.19;;;-9.35;100.00
19600;BME280;9947;57.722;12.012;2024-01-07T13:01:34;103215.38;;;-9.36;100.00
19600;BME280;9947;57.722;12.012;2024-01-07T13:04:04;103215.28;;;-9.38;100.00
19600;BME280;9947;57.722;12.012;2024-01-07T13:06:34;103223.16;;;-9.38;100.00
19600;BME280;9947;57.722;12.012;2024-01-07T13:09:02;103234.53;;;-9.37;100.00
19600;BME280;9947;57.722;12.012;2024-01-07T13:11:30;103231.91;;;-9.37;100.00
19600;BME280;9947;57.722;12.012;2024-01-07T13:16:27;103235.72;;;-9.30;100.00
19600;BME280;9947;57.722;12.012;2024-01-07T13:21:21;103239.34;;;-9.27;100.00
19600;BME280;9947;57.722;12.012;2024-01-07T13:23:49;103244.41;;;-9.31;100.00
19600;BME280;9947;57.722;12.012;2024-01-07T13:26:16;103243.50;;;-9.32;100.00
19600;BME280;9947;57.722;12.012;2024-01-07T13:28:43;103250.47;;;-9.32;100.00
19600;BME280;9947;57.722;12.012;2024-01-07T13:31:10;103254.13;;;-9.29;100.00
19600;BME280;9947;57.722;12.012;2024-01-07T13:33:39;103266.44;;;-9.26;100.00
19600;BME280;9947;57.722;12.012;2024-01-07T13:36:09;103262.81;;;-9.30;100.00
19600;BME280;9947;57.722;12.012;2024-01-07T13:38:39;103267.97;;;-9.31;100.00
19600;BME280;9947;57.722;12.012;2024-01-07T13:41:07;103267.06;;;-9.32;100.00
19600;BME280;9947;57.722;12.012;2024-01-07T13:43:41;103271.56;;;-9.29;100.00
19600;BME280;9947;57.722;12.012;2024-01-07T13:46:11;103268.75;;;-9.34;100.00
19600;BME280;9947;57.722;12.012;2024-01-07T13:48:39;103277.44;;;-9.35;100.00
19600;BME280;9947;57.722;12.012;2024-01-07T13:51:09;103279.22;;;-9.34;100.00
19600;BME280;9947;57.722;12.012;2024-01-07T13:53:36;103284.66;;;-9.29;100.00
19600;BME280;9947;57.722;12.012;2024-01-07T13:56:05;103283.63;;;-9.33;100.00
19600;BME280;9947;57.722;12.012;2024-01-07T13:58:34;103286.00;;;-9.38;100.00
19600;BME280;9947;57.722;12.012;2024-01-07T14:01:02;103291.56;;;-9.31;100.00
19600;BME280;9947;57.722;12.012;2024-01-07T14:03:30;103296.41;;;-9.39;100.00
19600;BME280;9947;57.722;12.012;2024-01-07T14:08:28;103315.06;;;-9.33;100.00
19600;BME280;9947;57.722;12.012;2024-01-07T14:13:21;103315.44;;;-9.43;100.00